METAR AND TAF INFORMATION
METAR FOR KTEX
ADDS - METARS form results

(1133 UTC 20 October 2020)
Data provider http://aviationweather.gov/metar/data/
 
METAR text: KTEX 201115Z AUTO 14005KT 10SM CLR 05/M10 A3028 RMK AO2
Conditions at: KTEX (TELLURIDE REGION, CO, US) observed 1115 UTC 20 October 2020
Temperature: 5.0°C (41°F)
Dewpoint: -10.0°C (14°F) [RH = 33%]
Pressure (altimeter): 30.28 inches Hg (1025.5 mb)
Winds: from the SE (140 degrees) at 6 MPH (5 knots; 2.6 m/s)
Visibility: 10 or more miles (16+ km)
Ceiling: at least 12,000 feet AGL
Clouds: sky clear below 12,000 feet AGL
Weather: automated observation with no human augmentation;
there may or may not be significant weather present at this time

METAR text: KTEX 201055Z AUTO 14006KT 10SM CLR 04/M10 A3029 RMK AO2
Conditions at: KTEX (TELLURIDE REGION, CO, US) observed 1055 UTC 20 October 2020
Temperature: 4.0°C (39°F)
Dewpoint: -10.0°C (14°F) [RH = 35%]
Pressure (altimeter): 30.29 inches Hg (1025.8 mb)
Winds: from the SE (140 degrees) at 7 MPH (6 knots; 3.1 m/s)
Visibility: 10 or more miles (16+ km)
Ceiling: at least 12,000 feet AGL
Clouds: sky clear below 12,000 feet AGL
Weather: automated observation with no human augmentation;
there may or may not be significant weather present at this time

METAR text: KTEX 201035Z AUTO 14006KT 10SM CLR 05/M10 A3029 RMK AO2
Conditions at: KTEX (TELLURIDE REGION, CO, US) observed 1035 UTC 20 October 2020
Temperature: 5.0°C (41°F)
Dewpoint: -10.0°C (14°F) [RH = 33%]
Pressure (altimeter): 30.29 inches Hg (1025.8 mb)
Winds: from the SE (140 degrees) at 7 MPH (6 knots; 3.1 m/s)
Visibility: 10 or more miles (16+ km)
Ceiling: at least 12,000 feet AGL
Clouds: sky clear below 12,000 feet AGL
Weather: automated observation with no human augmentation;
there may or may not be significant weather present at this time

Forecast for: KTEX (TELLURIDE REGION, CO, US)
Text: KTEX 201120Z 2012/2112 VRB04KT P6SM FEW250
Forecast period: 1200 to 1800 UTC 20 October 2020
Forecast type: FROM: standard forecast or significant change
Winds: variable direction winds at 5 MPH (4 knots; 2.1 m/s)
Visibility: 6 or more miles (10+ km)
Ceiling: at least 12,000 feet AGL
Clouds: few clouds at 25000 feet AGL
Weather: no significant weather forecast for this period
Text: FM201800 29007KT P6SM FEW250
Forecast period: 1800 to 2100 UTC 20 October 2020
Forecast type: FROM: standard forecast or significant change
Winds: from the WNW (290 degrees) at 8 MPH (7 knots; 3.6 m/s)
Visibility: 6 or more miles (10+ km)
Ceiling: at least 12,000 feet AGL
Clouds: few clouds at 25000 feet AGL
Weather: no significant weather forecast for this period
Text: FM202100 27014G21KT P6SM FEW250
Forecast period: 2100 UTC 20 October 2020 to 0200 UTC 21 October 2020
Forecast type: FROM: standard forecast or significant change
Winds: from the W (270 degrees) at 16 MPH (14 knots; 7.2 m/s)
gusting to 24 MPH (21 knots; 10.8 m/s)
Visibility: 6 or more miles (10+ km)
Ceiling: at least 12,000 feet AGL
Clouds: few clouds at 25000 feet AGL
Weather: no significant weather forecast for this period
Text: FM210200 15006KT P6SM FEW250
Forecast period: 0200 to 1200 UTC 21 October 2020
Forecast type: FROM: standard forecast or significant change
Winds: from the SSE (150 degrees) at 7 MPH (6 knots; 3.1 m/s)
Visibility: 6 or more miles (10+ km)
Ceiling: at least 12,000 feet AGL
Clouds: few clouds at 25000 feet AGL
Weather: no significant weather forecast for this period

 AIRPORT MAP

 RUNWAY INFORMATION
Runway 09 Runway length 6870 ft Runway width 100 ft
Runway elevation 9061 ft Runway displaced threshold 0 ft Runway heading 105
Runway 27 Runway length 6870 ft Runway width 100 ft
Runway elevation 9078 ft Runway displaced threshold 0 ft Runway heading 285

 AIRPORT FREQUENCIES
Type CNTR Name DENVER CNT Frequency 125.35 MHZ
Type FSS Name DENVER RDO Frequency 122.15 MHZ
Type UNIC Name CTAF/UNICO Frequency 123 MHZ

 AIRPORT NEAR NAVIGATION AIDS



Powered by Virtual Airlines Manager [v2.6.2]